PWSweather.com
Personal Weather Stations
Station Observations
KKSTOPEK1
South Central , Topeka, KS 66611

South Central Topeka, KS 66611

Lat: 39.03, Lon: -95.71

Elevation: 945

Station Type: Davis Vantage Vue

http://tallgrasspixels.net/weather/index.php

Latest ConditionsUpdated 1:30:04 PM CDT Monday, Aug 20, 2018
Currently Today's Max Today's Min Today's Average
Temperature 70.2°F21.2°C 70.2°F21.2°C 66.0°F18.9°C 67.4°F19.7°C
Dew Point 67.8°F19.9°C 68.1°F20.1°C 64.5°F18.1°C 65.6°F18.7°C
Winds 2.0 mph WSW3.2 kmh WSW 2.0 mph -3.2 kmh - - 0.6 mph 1.0 kmh
Wind Gusts 11.0 mph17.7 kmh 11.0 mph17.7 kmh - -
Humidity 92% 96% 88% 94%
Pressure 29.82 in1009.8 mb 29.83 in1010.2 mb 29.73 in1006.8 mb -
Hour Temp Dew Point Humidity Winds Wind Gusts Pressure Precip Precip Rate Daily Precip Total
01:30 PM 70.2°F21.2°C 67.8°F19.9°C 92% 2.0 mph WSW3.2 kmh WSW 11.0 mph17.7 kmh 29.82 in1009.8 mb 0.00 in0.0 mm 0.00 in0.0 mm 0.02 in0.5 mm
01:25 PM 70.2°F21.2°C 67.4°F19.7°C 91% 2.0 mph WSW3.2 kmh WSW 11.0 mph17.7 kmh 29.82 in1009.8 mb 0.00 in0.0 mm 0.00 in0.0 mm 0.02 in0.5 mm
01:20 PM 70.2°F21.2°C 67.8°F19.9°C 92% 1.0 mph W1.6 kmh W 6.0 mph9.7 kmh 29.83 in1010.2 mb 0.00 in0.0 mm 0.00 in0.0 mm 0.02 in0.5 mm
01:15 PM 70.1°F21.2°C 68.0°F20.0°C 93% 1.0 mph W1.6 kmh W 6.0 mph9.7 kmh 29.83 in1010.2 mb 0.00 in0.0 mm 0.00 in0.0 mm 0.02 in0.5 mm
01:10 PM 69.9°F21.1°C 67.5°F19.7°C 92% 2.0 mph WSW3.2 kmh WSW 7.0 mph11.3 kmh 29.83 in1010.2 mb 0.00 in0.0 mm 0.00 in0.0 mm 0.02 in0.5 mm
01:05 PM 69.9°F21.1°C 67.5°F19.7°C 92% 2.0 mph W3.2 kmh W 8.0 mph12.9 kmh 29.83 in1010.2 mb 0.00 in0.0 mm 0.00 in0.0 mm 0.02 in0.5 mm
01:00 PM 70.1°F21.2°C 68.0°F20.0°C 93% 1.0 mph WSW1.6 kmh WSW 8.0 mph12.9 kmh 29.83 in1010.2 mb 0.00 in0.0 mm 0.00 in0.0 mm 0.02 in0.5 mm
12:55 PM 70.0°F21.1°C 67.6°F19.8°C 92% 2.0 mph WSW3.2 kmh WSW 10.0 mph16.1 kmh 29.83 in1010.2 mb 0.00 in0.0 mm 0.00 in0.0 mm 0.02 in0.5 mm
12:50 PM 70.1°F21.2°C 68.0°F20.0°C 93% 2.0 mph W3.2 kmh W 10.0 mph16.1 kmh 29.83 in1010.2 mb 0.00 in0.0 mm 0.00 in0.0 mm 0.02 in0.5 mm
12:45 PM 69.9°F21.1°C 68.1°F20.1°C 94% 2.0 mph W3.2 kmh W 11.0 mph17.7 kmh 29.83 in1010.2 mb 0.00 in0.0 mm 0.00 in0.0 mm 0.02 in0.5 mm
12:40 PM 69.8°F21.0°C 68.0°F20.0°C 94% 1.0 mph WSW1.6 kmh WSW 11.0 mph17.7 kmh 29.83 in1010.2 mb 0.00 in0.0 mm 0.00 in0.0 mm 0.02 in0.5 mm
12:35 PM 69.5°F20.8°C 67.7°F19.8°C 94% 1.0 mph WSW1.6 kmh WSW 9.0 mph14.5 kmh 29.83 in1010.2 mb 0.00 in0.0 mm 0.00 in0.0 mm 0.02 in0.5 mm
12:30 PM 69.0°F20.6°C 67.2°F19.6°C 94% 1.0 mph WSW1.6 kmh WSW 9.0 mph14.5 kmh 29.83 in1010.2 mb 0.00 in0.0 mm 0.00 in0.0 mm 0.02 in0.5 mm
12:25 PM 69.0°F20.6°C 67.2°F19.6°C 94% 1.0 mph WSW1.6 kmh WSW 8.0 mph12.9 kmh 29.83 in1010.2 mb 0.00 in0.0 mm 0.00 in0.0 mm 0.02 in0.5 mm
12:20 PM 69.1°F20.6°C 67.3°F19.6°C 94% 1.0 mph WSW1.6 kmh WSW 8.0 mph12.9 kmh 29.83 in1010.2 mb 0.00 in0.0 mm 0.00 in0.0 mm 0.02 in0.5 mm
12:15 PM 69.0°F20.6°C 67.2°F19.6°C 94% 1.0 mph WSW1.6 kmh WSW 8.0 mph12.9 kmh 29.83 in1010.2 mb 0.00 in0.0 mm 0.00 in0.0 mm 0.02 in0.5 mm
12:10 PM 68.7°F20.4°C 66.9°F19.4°C 94% 1.0 mph WSW1.6 kmh WSW 8.0 mph12.9 kmh 29.83 in1010.2 mb 0.00 in0.0 mm 0.00 in0.0 mm 0.02 in0.5 mm
12:05 PM 68.5°F20.3°C 66.7°F19.3°C 94% 1.0 mph WSW1.6 kmh WSW 4.0 mph6.4 kmh 29.83 in1010.2 mb 0.00 in0.0 mm 0.00 in0.0 mm 0.02 in0.5 mm
12:00 PM 68.5°F20.3°C 66.7°F19.3°C 94% 1.0 mph WSW1.6 kmh WSW 4.0 mph6.4 kmh 29.83 in1010.2 mb 0.00 in0.0 mm 0.00 in0.0 mm 0.02 in0.5 mm
11:55 AM 68.4°F20.2°C 66.3°F19.1°C 93% 1.0 mph WSW1.6 kmh WSW 4.0 mph6.4 kmh 29.83 in1010.2 mb 0.00 in0.0 mm 0.00 in0.0 mm 0.02 in0.5 mm
11:50 AM 68.5°F20.3°C 66.4°F19.1°C 93% 1.0 mph WSW1.6 kmh WSW 5.0 mph8.0 kmh 29.83 in1010.2 mb 0.00 in0.0 mm 0.00 in0.0 mm 0.02 in0.5 mm
11:45 AM 68.7°F20.4°C 66.9°F19.4°C 94% 1.0 mph WSW1.6 kmh WSW 5.0 mph8.0 kmh 29.83 in1010.2 mb 0.00 in0.0 mm 0.00 in0.0 mm 0.02 in0.5 mm
11:40 AM 68.7°F20.4°C 66.9°F19.4°C 94% 1.0 mph WSW1.6 kmh WSW 8.0 mph12.9 kmh 29.83 in1010.2 mb 0.00 in0.0 mm 0.00 in0.0 mm 0.02 in0.5 mm
11:35 AM 68.4°F20.2°C 66.3°F19.1°C 93% 1.0 mph W1.6 kmh W 8.0 mph12.9 kmh 29.82 in1009.8 mb 0.00 in0.0 mm 0.00 in0.0 mm 0.02 in0.5 mm
11:30 AM 68.4°F20.2°C 66.6°F19.2°C 94% 1.0 mph WSW1.6 kmh WSW 5.0 mph8.0 kmh 29.82 in1009.8 mb 0.00 in0.0 mm 0.00 in0.0 mm 0.02 in0.5 mm
11:25 AM 68.2°F20.1°C 66.7°F19.3°C 95% 1.0 mph WSW1.6 kmh WSW 7.0 mph11.3 kmh 29.82 in1009.8 mb 0.00 in0.0 mm 0.00 in0.0 mm 0.02 in0.5 mm
11:20 AM 68.0°F20.0°C 66.5°F19.2°C 95% 1.0 mph WSW1.6 kmh WSW 7.0 mph11.3 kmh 29.82 in1009.8 mb 0.00 in0.0 mm 0.00 in0.0 mm 0.02 in0.5 mm
11:15 AM 67.6°F19.8°C 65.8°F18.8°C 94% 1.0 mph W1.6 kmh W 5.0 mph8.0 kmh 29.82 in1009.8 mb 0.00 in0.0 mm 0.00 in0.0 mm 0.02 in0.5 mm
11:10 AM 67.5°F19.7°C 66.0°F18.9°C 95% 1.0 mph W1.6 kmh W 5.0 mph8.0 kmh 29.82 in1009.8 mb 0.00 in0.0 mm 0.00 in0.0 mm 0.02 in0.5 mm
11:05 AM 67.4°F19.7°C 65.6°F18.7°C 94% 1.0 mph W1.6 kmh W 8.0 mph12.9 kmh 29.82 in1009.8 mb 0.00 in0.0 mm 0.00 in0.0 mm 0.02 in0.5 mm
11:00 AM 67.3°F19.6°C 65.5°F18.6°C 94% 1.0 mph WSW1.6 kmh WSW 8.0 mph12.9 kmh 29.82 in1009.8 mb 0.00 in0.0 mm 0.00 in0.0 mm 0.02 in0.5 mm
10:55 AM 67.3°F19.6°C 65.5°F18.6°C 94% Calm Calm 3.0 mph4.8 kmh 29.82 in1009.8 mb 0.00 in0.0 mm 0.00 in0.0 mm 0.02 in0.5 mm
10:50 AM 67.3°F19.6°C 65.5°F18.6°C 94% Calm Calm 3.0 mph4.8 kmh 29.82 in1009.8 mb 0.00 in0.0 mm 0.00 in0.0 mm 0.02 in0.5 mm
10:45 AM 67.3°F19.6°C 65.5°F18.6°C 94% 1.0 mph WSW1.6 kmh WSW 7.0 mph11.3 kmh 29.82 in1009.8 mb 0.00 in0.0 mm 0.00 in0.0 mm 0.02 in0.5 mm
10:40 AM 67.4°F19.7°C 65.3°F18.5°C 93% 2.0 mph W3.2 kmh W 7.0 mph11.3 kmh 29.82 in1009.8 mb 0.00 in0.0 mm 0.00 in0.0 mm 0.02 in0.5 mm
10:35 AM 67.6°F19.8°C 65.5°F18.6°C 93% 1.0 mph WSW1.6 kmh WSW 7.0 mph11.3 kmh 29.82 in1009.8 mb 0.00 in0.0 mm 0.00 in0.0 mm 0.02 in0.5 mm
10:30 AM 67.9°F19.9°C 65.5°F18.6°C 92% 1.0 mph W1.6 kmh W 7.0 mph11.3 kmh 29.82 in1009.8 mb 0.00 in0.0 mm 0.00 in0.0 mm 0.02 in0.5 mm
10:25 AM 68.1°F20.1°C 65.7°F18.7°C 92% 1.0 mph W1.6 kmh W 5.0 mph8.0 kmh 29.81 in1009.5 mb 0.00 in0.0 mm 0.00 in0.0 mm 0.02 in0.5 mm
10:20 AM 68.3°F20.2°C 65.6°F18.7°C 91% 1.0 mph WSW1.6 kmh WSW 5.0 mph8.0 kmh 29.81 in1009.5 mb 0.00 in0.0 mm 0.00 in0.0 mm 0.02 in0.5 mm
10:15 AM 68.6°F20.3°C 65.9°F18.8°C 91% 1.0 mph WSW1.6 kmh WSW 5.0 mph8.0 kmh 29.81 in1009.5 mb 0.00 in0.0 mm 0.00 in0.0 mm 0.02 in0.5 mm
10:10 AM 69.0°F20.6°C 65.9°F18.8°C 90% 1.0 mph WSW1.6 kmh WSW 5.0 mph8.0 kmh 29.81 in1009.5 mb 0.00 in0.0 mm 0.00 in0.0 mm 0.02 in0.5 mm
10:05 AM 69.3°F20.7°C 65.9°F18.8°C 89% 1.0 mph W1.6 kmh W 8.0 mph12.9 kmh 29.81 in1009.5 mb 0.00 in0.0 mm 0.00 in0.0 mm 0.02 in0.5 mm
10:00 AM 69.6°F20.9°C 65.9°F18.8°C 88% 1.0 mph W1.6 kmh W 8.0 mph12.9 kmh 29.80 in1009.1 mb 0.00 in0.0 mm 0.00 in0.0 mm 0.02 in0.5 mm
09:55 AM 69.7°F20.9°C 66.3°F19.1°C 89% 1.0 mph WSW1.6 kmh WSW 7.0 mph11.3 kmh 29.80 in1009.1 mb 0.00 in0.0 mm 0.00 in0.0 mm 0.02 in0.5 mm
09:50 AM 69.7°F20.9°C 66.3°F19.1°C 89% 1.0 mph WSW1.6 kmh WSW 7.0 mph11.3 kmh 29.80 in1009.1 mb 0.00 in0.0 mm 0.00 in0.0 mm 0.02 in0.5 mm
09:45 AM 69.8°F21.0°C 66.7°F19.3°C 90% 1.0 mph NW1.6 kmh NW 5.0 mph8.0 kmh 29.80 in1009.1 mb 0.00 in0.0 mm 0.00 in0.0 mm 0.02 in0.5 mm
09:40 AM 69.7°F20.9°C 66.6°F19.2°C 90% 1.0 mph W1.6 kmh W 5.0 mph8.0 kmh 29.80 in1009.1 mb 0.00 in0.0 mm 0.00 in0.0 mm 0.02 in0.5 mm
09:35 AM 69.8°F21.0°C 66.4°F19.1°C 89% 1.0 mph WSW1.6 kmh WSW 5.0 mph8.0 kmh 29.80 in1009.1 mb 0.00 in0.0 mm 0.00 in0.0 mm 0.02 in0.5 mm
09:30 AM 70.0°F21.1°C 66.9°F19.4°C 90% 1.0 mph WSW1.6 kmh WSW 4.0 mph6.4 kmh 29.80 in1009.1 mb 0.00 in0.0 mm 0.00 in0.0 mm 0.02 in0.5 mm
09:25 AM 69.6°F20.9°C 66.5°F19.2°C 90% 1.0 mph WSW1.6 kmh WSW 6.0 mph9.7 kmh 29.80 in1009.1 mb 0.00 in0.0 mm 0.00 in0.0 mm 0.02 in0.5 mm
09:20 AM 69.2°F20.7°C 66.1°F18.9°C 90% 1.0 mph WSW1.6 kmh WSW 6.0 mph9.7 kmh 29.80 in1009.1 mb 0.00 in0.0 mm 0.00 in0.0 mm 0.02 in0.5 mm
09:15 AM 69.0°F20.6°C 65.9°F18.8°C 90% 1.0 mph WSW1.6 kmh WSW 4.0 mph6.4 kmh 29.79 in1008.8 mb 0.00 in0.0 mm 0.00 in0.0 mm 0.02 in0.5 mm
09:10 AM 68.9°F20.5°C 66.2°F19.0°C 91% 1.0 mph WSW1.6 kmh WSW 2.0 mph3.2 kmh 29.79 in1008.8 mb 0.00 in0.0 mm 0.00 in0.0 mm 0.02 in0.5 mm
09:05 AM 68.6°F20.3°C 65.9°F18.8°C 91% 1.0 mph WSW1.6 kmh WSW 4.0 mph6.4 kmh 29.79 in1008.8 mb 0.00 in0.0 mm 0.00 in0.0 mm 0.02 in0.5 mm
09:00 AM 68.4°F20.2°C 65.7°F18.7°C 91% 1.0 mph WSW1.6 kmh WSW 4.0 mph6.4 kmh 29.79 in1008.8 mb 0.00 in0.0 mm 0.00 in0.0 mm 0.02 in0.5 mm
08:55 AM 68.5°F20.3°C 65.8°F18.8°C 91% 1.0 mph W1.6 kmh W 4.0 mph6.4 kmh 29.79 in1008.8 mb 0.00 in0.0 mm 0.00 in0.0 mm 0.02 in0.5 mm
08:50 AM 68.4°F20.2°C 65.7°F18.7°C 91% 1.0 mph W1.6 kmh W 4.0 mph6.4 kmh 29.79 in1008.8 mb 0.00 in0.0 mm 0.00 in0.0 mm 0.02 in0.5 mm
08:45 AM 68.4°F20.2°C 65.7°F18.7°C 91% 1.0 mph W1.6 kmh W 4.0 mph6.4 kmh 29.79 in1008.8 mb 0.00 in0.0 mm 0.00 in0.0 mm 0.02 in0.5 mm
08:40 AM 68.3°F20.2°C 65.6°F18.7°C 91% 1.0 mph W1.6 kmh W 5.0 mph8.0 kmh 29.79 in1008.8 mb 0.00 in0.0 mm 0.00 in0.0 mm 0.02 in0.5 mm
08:35 AM 68.2°F20.1°C 65.5°F18.6°C 91% 1.0 mph W1.6 kmh W 5.0 mph8.0 kmh 29.79 in1008.8 mb 0.00 in0.0 mm 0.00 in0.0 mm 0.02 in0.5 mm
08:30 AM 68.2°F20.1°C 65.5°F18.6°C 91% 1.0 mph WSW1.6 kmh WSW 4.0 mph6.4 kmh 29.79 in1008.8 mb 0.00 in0.0 mm 0.00 in0.0 mm 0.02 in0.5 mm
08:25 AM 68.2°F20.1°C 65.8°F18.8°C 92% 1.0 mph W1.6 kmh W 4.0 mph6.4 kmh 29.79 in1008.8 mb 0.00 in0.0 mm 0.00 in0.0 mm 0.02 in0.5 mm
08:20 AM 68.1°F20.1°C 65.7°F18.7°C 92% 1.0 mph W1.6 kmh W 4.0 mph6.4 kmh 29.79 in1008.8 mb 0.00 in0.0 mm 0.00 in0.0 mm 0.02 in0.5 mm
08:15 AM 68.1°F20.1°C 65.7°F18.7°C 92% Calm Calm 2.0 mph3.2 kmh 29.79 in1008.8 mb 0.00 in0.0 mm 0.00 in0.0 mm 0.02 in0.5 mm
08:10 AM 68.0°F20.0°C 65.6°F18.7°C 92% 1.0 mph SSW1.6 kmh SSW 3.0 mph4.8 kmh 29.79 in1008.8 mb 0.00 in0.0 mm 0.00 in0.0 mm 0.02 in0.5 mm
08:05 AM 68.0°F20.0°C 65.9°F18.8°C 93% Calm Calm 3.0 mph4.8 kmh 29.78 in1008.5 mb 0.00 in0.0 mm 0.00 in0.0 mm 0.02 in0.5 mm
08:00 AM 67.9°F19.9°C 65.8°F18.8°C 93% Calm Calm 3.0 mph4.8 kmh 29.78 in1008.5 mb 0.00 in0.0 mm 0.00 in0.0 mm 0.02 in0.5 mm
07:55 AM 67.7°F19.8°C 65.6°F18.7°C 93% 1.0 mph WSW1.6 kmh WSW 3.0 mph4.8 kmh 29.78 in1008.5 mb 0.00 in0.0 mm 0.00 in0.0 mm 0.02 in0.5 mm
07:50 AM 67.6°F19.8°C 65.5°F18.6°C 93% 1.0 mph WSW1.6 kmh WSW 3.0 mph4.8 kmh 29.78 in1008.5 mb 0.00 in0.0 mm 0.00 in0.0 mm 0.02 in0.5 mm
07:45 AM 67.5°F19.7°C 65.4°F18.6°C 93% Calm Calm 3.0 mph4.8 kmh 29.78 in1008.5 mb 0.00 in0.0 mm 0.00 in0.0 mm 0.02 in0.5 mm
07:40 AM 67.4°F19.7°C 65.3°F18.5°C 93% Calm Calm 4.0 mph6.4 kmh 29.78 in1008.5 mb 0.00 in0.0 mm 0.00 in0.0 mm 0.02 in0.5 mm
07:35 AM 67.3°F19.6°C 65.2°F18.4°C 93% Calm Calm 5.0 mph8.0 kmh 29.79 in1008.8 mb 0.00 in0.0 mm 0.00 in0.0 mm 0.02 in0.5 mm
07:30 AM 67.2°F19.6°C 65.1°F18.4°C 93% Calm Calm 5.0 mph8.0 kmh 29.78 in1008.5 mb 0.00 in0.0 mm 0.00 in0.0 mm 0.02 in0.5 mm
07:25 AM 67.2°F19.6°C 65.1°F18.4°C 93% Calm Calm 4.0 mph6.4 kmh 29.79 in1008.8 mb 0.00 in0.0 mm 0.00 in0.0 mm 0.02 in0.5 mm
07:20 AM 67.1°F19.5°C 65.3°F18.5°C 94% Calm Calm 2.0 mph3.2 kmh 29.78 in1008.5 mb 0.00 in0.0 mm 0.00 in0.0 mm 0.02 in0.5 mm
07:15 AM 67.0°F19.4°C 65.2°F18.4°C 94% Calm Calm 4.0 mph6.4 kmh 29.78 in1008.5 mb 0.00 in0.0 mm 0.00 in0.0 mm 0.02 in0.5 mm
07:10 AM 67.0°F19.4°C 65.2°F18.4°C 94% 1.0 mph W1.6 kmh W 4.0 mph6.4 kmh 29.78 in1008.5 mb 0.00 in0.0 mm 0.00 in0.0 mm 0.02 in0.5 mm
07:05 AM 66.9°F19.4°C 65.1°F18.4°C 94% Calm Calm 4.0 mph6.4 kmh 29.78 in1008.5 mb 0.00 in0.0 mm 0.00 in0.0 mm 0.02 in0.5 mm
07:00 AM 66.8°F19.3°C 65.0°F18.3°C 94% 1.0 mph SW1.6 kmh SW 4.0 mph6.4 kmh 29.78 in1008.5 mb 0.00 in0.0 mm 0.00 in0.0 mm 0.02 in0.5 mm
06:55 AM 66.7°F19.3°C 64.9°F18.3°C 94% 1.0 mph SW1.6 kmh SW 4.0 mph6.4 kmh 29.77 in1008.1 mb 0.00 in0.0 mm 0.00 in0.0 mm 0.02 in0.5 mm
06:50 AM 66.7°F19.3°C 64.9°F18.3°C 94% 1.0 mph WSW1.6 kmh WSW 4.0 mph6.4 kmh 29.77 in1008.1 mb 0.00 in0.0 mm 0.00 in0.0 mm 0.02 in0.5 mm
06:45 AM 66.6°F19.2°C 64.8°F18.2°C 94% Calm Calm 4.0 mph6.4 kmh 29.77 in1008.1 mb 0.00 in0.0 mm 0.00 in0.0 mm 0.02 in0.5 mm
06:40 AM 66.6°F19.2°C 64.8°F18.2°C 94% 1.0 mph W1.6 kmh W 5.0 mph8.0 kmh 29.77 in1008.1 mb 0.00 in0.0 mm 0.00 in0.0 mm 0.02 in0.5 mm
06:35 AM 66.6°F19.2°C 64.8°F18.2°C 94% 1.0 mph W1.6 kmh W 5.0 mph8.0 kmh 29.77 in1008.1 mb 0.00 in0.0 mm 0.00 in0.0 mm 0.02 in0.5 mm
06:30 AM 66.6°F19.2°C 64.8°F18.2°C 94% Calm Calm 4.0 mph6.4 kmh 29.77 in1008.1 mb 0.00 in0.0 mm 0.00 in0.0 mm 0.02 in0.5 mm
06:25 AM 66.7°F19.3°C 64.9°F18.3°C 94% 1.0 mph WSW1.6 kmh WSW 4.0 mph6.4 kmh 29.77 in1008.1 mb 0.00 in0.0 mm 0.00 in0.0 mm 0.02 in0.5 mm
06:20 AM 66.7°F19.3°C 64.9°F18.3°C 94% 1.0 mph W1.6 kmh W 7.0 mph11.3 kmh 29.77 in1008.1 mb 0.00 in0.0 mm 0.00 in0.0 mm 0.02 in0.5 mm
06:15 AM 66.7°F19.3°C 64.9°F18.3°C 94% 1.0 mph WNW1.6 kmh WNW 7.0 mph11.3 kmh 29.77 in1008.1 mb 0.00 in0.0 mm 0.00 in0.0 mm 0.02 in0.5 mm
06:10 AM 66.7°F19.3°C 64.9°F18.3°C 94% 1.0 mph W1.6 kmh W 6.0 mph9.7 kmh 29.77 in1008.1 mb 0.00 in0.0 mm 0.00 in0.0 mm 0.02 in0.5 mm
06:05 AM 66.7°F19.3°C 65.2°F18.4°C 95% 1.0 mph WSW1.6 kmh WSW 6.0 mph9.7 kmh 29.77 in1008.1 mb 0.00 in0.0 mm 0.00 in0.0 mm 0.02 in0.5 mm
06:00 AM 66.7°F19.3°C 65.2°F18.4°C 95% 1.0 mph WSW1.6 kmh WSW 5.0 mph8.0 kmh 29.77 in1008.1 mb 0.00 in0.0 mm 0.00 in0.0 mm 0.02 in0.5 mm
05:55 AM 66.8°F19.3°C 65.3°F18.5°C 95% 1.0 mph WSW1.6 kmh WSW 3.0 mph4.8 kmh 29.76 in1007.8 mb 0.00 in0.0 mm 0.00 in0.0 mm 0.02 in0.5 mm
05:50 AM 66.7°F19.3°C 65.2°F18.4°C 95% 1.0 mph WSW1.6 kmh WSW 3.0 mph4.8 kmh 29.76 in1007.8 mb 0.00 in0.0 mm 0.00 in0.0 mm 0.02 in0.5 mm
05:45 AM 66.7°F19.3°C 65.2°F18.4°C 95% Calm Calm 3.0 mph4.8 kmh 29.76 in1007.8 mb 0.00 in0.0 mm 0.00 in0.0 mm 0.02 in0.5 mm
05:40 AM 66.7°F19.3°C 65.2°F18.4°C 95% Calm Calm 1.0 mph1.6 kmh 29.76 in1007.8 mb 0.00 in0.0 mm 0.00 in0.0 mm 0.02 in0.5 mm
05:35 AM 66.8°F19.3°C 65.3°F18.5°C 95% Calm Calm 1.0 mph1.6 kmh 29.76 in1007.8 mb 0.00 in0.0 mm 0.00 in0.0 mm 0.02 in0.5 mm
05:30 AM 66.7°F19.3°C 65.2°F18.4°C 95% Calm Calm 4.0 mph6.4 kmh 29.76 in1007.8 mb 0.00 in0.0 mm 0.00 in0.0 mm 0.02 in0.5 mm
05:25 AM 66.7°F19.3°C 65.2°F18.4°C 95% Calm Calm 4.0 mph6.4 kmh 29.76 in1007.8 mb 0.00 in0.0 mm 0.00 in0.0 mm 0.02 in0.5 mm
05:20 AM 66.7°F19.3°C 65.2°F18.4°C 95% Calm Calm 2.0 mph3.2 kmh 29.76 in1007.8 mb 0.00 in0.0 mm 0.00 in0.0 mm 0.02 in0.5 mm
05:15 AM 66.8°F19.3°C 65.3°F18.5°C 95% 1.0 mph W1.6 kmh W 4.0 mph6.4 kmh 29.76 in1007.8 mb 0.00 in0.0 mm 0.00 in0.0 mm 0.02 in0.5 mm
05:10 AM 66.7°F19.3°C 65.2°F18.4°C 95% 1.0 mph WSW1.6 kmh WSW 6.0 mph9.7 kmh 29.76 in1007.8 mb 0.00 in0.0 mm 0.00 in0.0 mm 0.02 in0.5 mm
05:05 AM 66.7°F19.3°C 65.2°F18.4°C 95% 1.0 mph WSW1.6 kmh WSW 6.0 mph9.7 kmh 29.76 in1007.8 mb 0.00 in0.0 mm 0.00 in0.0 mm 0.02 in0.5 mm
05:00 AM 66.8°F19.3°C 65.3°F18.5°C 95% Calm Calm 3.0 mph4.8 kmh 29.76 in1007.8 mb 0.00 in0.0 mm 0.00 in0.0 mm 0.02 in0.5 mm
04:55 AM 66.8°F19.3°C 65.3°F18.5°C 95% 1.0 mph W1.6 kmh W 4.0 mph6.4 kmh 29.76 in1007.8 mb 0.00 in0.0 mm 0.00 in0.0 mm 0.02 in0.5 mm
04:50 AM 66.8°F19.3°C 65.3°F18.5°C 95% 1.0 mph W1.6 kmh W 4.0 mph6.4 kmh 29.76 in1007.8 mb 0.00 in0.0 mm 0.00 in0.0 mm 0.02 in0.5 mm
04:45 AM 66.9°F19.4°C 65.4°F18.6°C 95% 1.0 mph WNW1.6 kmh WNW 4.0 mph6.4 kmh 29.76 in1007.8 mb 0.00 in0.0 mm 0.00 in0.0 mm 0.02 in0.5 mm
04:40 AM 66.9°F19.4°C 65.4°F18.6°C 95% 1.0 mph W1.6 kmh W 4.0 mph6.4 kmh 29.76 in1007.8 mb 0.00 in0.0 mm 0.00 in0.0 mm 0.02 in0.5 mm
04:35 AM 66.8°F19.3°C 65.6°F18.7°C 96% Calm Calm 4.0 mph6.4 kmh 29.76 in1007.8 mb 0.00 in0.0 mm 0.00 in0.0 mm 0.02 in0.5 mm
04:30 AM 66.7°F19.3°C 65.5°F18.6°C 96% Calm Calm 3.0 mph4.8 kmh 29.76 in1007.8 mb 0.00 in0.0 mm 0.00 in0.0 mm 0.02 in0.5 mm
04:25 AM 66.7°F19.3°C 65.5°F18.6°C 96% Calm Calm 5.0 mph8.0 kmh 29.76 in1007.8 mb 0.00 in0.0 mm 0.00 in0.0 mm 0.02 in0.5 mm
04:20 AM 66.6°F19.2°C 65.4°F18.6°C 96% Calm Calm 5.0 mph8.0 kmh 29.76 in1007.8 mb 0.00 in0.0 mm 0.00 in0.0 mm 0.02 in0.5 mm
04:15 AM 66.6°F19.2°C 65.4°F18.6°C 96% Calm Calm 4.0 mph6.4 kmh 29.76 in1007.8 mb 0.00 in0.0 mm 0.00 in0.0 mm 0.02 in0.5 mm
04:10 AM 66.5°F19.2°C 65.3°F18.5°C 96% Calm Calm 4.0 mph6.4 kmh 29.76 in1007.8 mb 0.00 in0.0 mm 0.00 in0.0 mm 0.02 in0.5 mm
04:05 AM 66.4°F19.1°C 65.2°F18.4°C 96% 1.0 mph W1.6 kmh W 4.0 mph6.4 kmh 29.76 in1007.8 mb 0.00 in0.0 mm 0.00 in0.0 mm 0.02 in0.5 mm
04:00 AM 66.4°F19.1°C 65.2°F18.4°C 96% Calm Calm 3.0 mph4.8 kmh 29.76 in1007.8 mb 0.00 in0.0 mm 0.00 in0.0 mm 0.02 in0.5 mm
03:55 AM 66.5°F19.2°C 65.3°F18.5°C 96% Calm Calm 2.0 mph3.2 kmh 29.76 in1007.8 mb 0.00 in0.0 mm 0.00 in0.0 mm 0.02 in0.5 mm
03:50 AM 66.4°F19.1°C 65.2°F18.4°C 96% Calm Calm 6.0 mph9.7 kmh 29.76 in1007.8 mb 0.00 in0.0 mm 0.00 in0.0 mm 0.02 in0.5 mm
03:45 AM 66.4°F19.1°C 65.2°F18.4°C 96% Calm Calm 6.0 mph9.7 kmh 29.76 in1007.8 mb 0.00 in0.0 mm 0.00 in0.0 mm 0.02 in0.5 mm
03:40 AM 66.4°F19.1°C 65.2°F18.4°C 96% Calm Calm 1.0 mph1.6 kmh 29.76 in1007.8 mb 0.00 in0.0 mm 0.00 in0.0 mm 0.02 in0.5 mm
03:35 AM 66.4°F19.1°C 65.2°F18.4°C 96% Calm Calm 2.0 mph3.2 kmh 29.76 in1007.8 mb 0.00 in0.0 mm 0.00 in0.0 mm 0.02 in0.5 mm
03:30 AM 66.3°F19.1°C 65.1°F18.4°C 96% Calm Calm 2.0 mph3.2 kmh 29.76 in1007.8 mb 0.00 in0.0 mm 0.00 in0.0 mm 0.02 in0.5 mm
03:25 AM 66.3°F19.1°C 65.1°F18.4°C 96% Calm Calm 1.0 mph1.6 kmh 29.76 in1007.8 mb 0.00 in0.0 mm 0.00 in0.0 mm 0.02 in0.5 mm
03:20 AM 66.2°F19.0°C 64.7°F18.2°C 95% Calm Calm 4.0 mph6.4 kmh 29.75 in1007.5 mb 0.00 in0.0 mm 0.00 in0.0 mm 0.02 in0.5 mm
03:15 AM 66.2°F19.0°C 64.7°F18.2°C 95% 1.0 mph WSW1.6 kmh WSW 5.0 mph8.0 kmh 29.75 in1007.5 mb 0.00 in0.0 mm 0.00 in0.0 mm 0.02 in0.5 mm
03:10 AM 66.3°F19.1°C 64.8°F18.2°C 95% Calm Calm 5.0 mph8.0 kmh 29.75 in1007.5 mb 0.00 in0.0 mm 0.00 in0.0 mm 0.02 in0.5 mm
03:05 AM 66.3°F19.1°C 64.8°F18.2°C 95% 1.0 mph W1.6 kmh W 3.0 mph4.8 kmh 29.75 in1007.5 mb 0.00 in0.0 mm 0.00 in0.0 mm 0.02 in0.5 mm
03:00 AM 66.3°F19.1°C 64.8°F18.2°C 95% Calm Calm 3.0 mph4.8 kmh 29.75 in1007.5 mb 0.00 in0.0 mm 0.00 in0.0 mm 0.02 in0.5 mm
02:55 AM 66.3°F19.1°C 64.8°F18.2°C 95% Calm Calm 3.0 mph4.8 kmh 29.75 in1007.5 mb 0.00 in0.0 mm 0.00 in0.0 mm 0.02 in0.5 mm
02:50 AM 66.3°F19.1°C 64.8°F18.2°C 95% Calm Calm 2.0 mph3.2 kmh 29.75 in1007.5 mb 0.00 in0.0 mm 0.00 in0.0 mm 0.02 in0.5 mm
02:45 AM 66.3°F19.1°C 64.8°F18.2°C 95% Calm Calm 2.0 mph3.2 kmh 29.75 in1007.5 mb 0.00 in0.0 mm 0.00 in0.0 mm 0.02 in0.5 mm
02:40 AM 66.3°F19.1°C 64.8°F18.2°C 95% Calm Calm 2.0 mph3.2 kmh 29.75 in1007.5 mb 0.00 in0.0 mm 0.00 in0.0 mm 0.02 in0.5 mm
02:35 AM 66.3°F19.1°C 64.8°F18.2°C 95% Calm Calm 4.0 mph6.4 kmh 29.75 in1007.5 mb 0.00 in0.0 mm 0.00 in0.0 mm 0.02 in0.5 mm
02:30 AM 66.2°F19.0°C 64.7°F18.2°C 95% Calm Calm 4.0 mph6.4 kmh 29.75 in1007.5 mb 0.00 in0.0 mm 0.00 in0.0 mm 0.02 in0.5 mm
02:25 AM 66.2°F19.0°C 64.7°F18.2°C 95% Calm Calm 2.0 mph3.2 kmh 29.75 in1007.5 mb 0.00 in0.0 mm 0.00 in0.0 mm 0.02 in0.5 mm
02:20 AM 66.2°F19.0°C 64.7°F18.2°C 95% Calm Calm 3.0 mph4.8 kmh 29.75 in1007.5 mb 0.00 in0.0 mm 0.00 in0.0 mm 0.02 in0.5 mm
02:15 AM 66.2°F19.0°C 64.7°F18.2°C 95% Calm Calm 3.0 mph4.8 kmh 29.75 in1007.5 mb 0.00 in0.0 mm 0.00 in0.0 mm 0.02 in0.5 mm
02:10 AM 66.2°F19.0°C 64.7°F18.2°C 95% Calm Calm 2.0 mph3.2 kmh 29.75 in1007.5 mb 0.00 in0.0 mm 0.00 in0.0 mm 0.02 in0.5 mm
02:05 AM 66.2°F19.0°C 64.7°F18.2°C 95% Calm Calm 2.0 mph3.2 kmh 29.75 in1007.5 mb 0.00 in0.0 mm 0.00 in0.0 mm 0.02 in0.5 mm
02:00 AM 66.2°F19.0°C 64.7°F18.2°C 95% Calm Calm 2.0 mph3.2 kmh 29.75 in1007.5 mb 0.00 in0.0 mm 0.00 in0.0 mm 0.02 in0.5 mm
01:55 AM 66.2°F19.0°C 64.7°F18.2°C 95% Calm Calm 2.0 mph3.2 kmh 29.75 in1007.5 mb 0.00 in0.0 mm 0.00 in0.0 mm 0.02 in0.5 mm
01:50 AM 66.1°F18.9°C 64.6°F18.1°C 95% Calm Calm 2.0 mph3.2 kmh 29.75 in1007.5 mb 0.00 in0.0 mm 0.00 in0.0 mm 0.02 in0.5 mm
01:45 AM 66.1°F18.9°C 64.6°F18.1°C 95% Calm Calm 2.0 mph3.2 kmh 29.75 in1007.5 mb 0.00 in0.0 mm 0.00 in0.0 mm 0.02 in0.5 mm
01:40 AM 66.1°F18.9°C 64.6°F18.1°C 95% Calm Calm 2.0 mph3.2 kmh 29.75 in1007.5 mb 0.00 in0.0 mm 0.00 in0.0 mm 0.02 in0.5 mm
01:35 AM 66.1°F18.9°C 64.6°F18.1°C 95% Calm Calm 2.0 mph3.2 kmh 29.75 in1007.5 mb 0.00 in0.0 mm 0.00 in0.0 mm 0.02 in0.5 mm
01:30 AM 66.2°F19.0°C 64.7°F18.2°C 95% Calm Calm 2.0 mph3.2 kmh 29.75 in1007.5 mb 0.00 in0.0 mm 0.00 in0.0 mm 0.02 in0.5 mm
01:25 AM 66.1°F18.9°C 64.6°F18.1°C 95% Calm Calm 3.0 mph4.8 kmh 29.75 in1007.5 mb 0.00 in0.0 mm 0.00 in0.0 mm 0.02 in0.5 mm
01:20 AM 66.0°F18.9°C 64.5°F18.1°C 95% 1.0 mph W1.6 kmh W 5.0 mph8.0 kmh 29.75 in1007.5 mb 0.00 in0.0 mm 0.00 in0.0 mm 0.02 in0.5 mm
01:15 AM 66.0°F18.9°C 64.5°F18.1°C 95% Calm Calm 5.0 mph8.0 kmh 29.75 in1007.5 mb 0.00 in0.0 mm 0.00 in0.0 mm 0.02 in0.5 mm
01:10 AM 66.1°F18.9°C 64.9°F18.3°C 96% 1.0 mph WSW1.6 kmh WSW 3.0 mph4.8 kmh 29.75 in1007.5 mb 0.00 in0.0 mm 0.00 in0.0 mm 0.02 in0.5 mm
01:05 AM 66.1°F18.9°C 64.9°F18.3°C 96% Calm Calm 4.0 mph6.4 kmh 29.75 in1007.5 mb 0.00 in0.0 mm 0.00 in0.0 mm 0.02 in0.5 mm
01:00 AM 66.1°F18.9°C 64.9°F18.3°C 96% Calm Calm 4.0 mph6.4 kmh 29.75 in1007.5 mb 0.00 in0.0 mm 0.00 in0.0 mm 0.02 in0.5 mm
12:55 AM 66.2°F19.0°C 65.0°F18.3°C 96% Calm Calm 1.0 mph1.6 kmh 29.75 in1007.5 mb 0.00 in0.0 mm 0.00 in0.0 mm 0.02 in0.5 mm
12:50 AM 66.2°F19.0°C 65.0°F18.3°C 96% Calm Calm 2.0 mph3.2 kmh 29.75 in1007.5 mb 0.01 in0.3 mm 0.00 in0.0 mm 0.02 in0.5 mm
12:45 AM 66.2°F19.0°C 65.0°F18.3°C 96% Calm Calm 3.0 mph4.8 kmh 29.75 in1007.5 mb 0.01 in0.3 mm 0.00 in0.0 mm 0.02 in0.5 mm
12:40 AM 66.2°F19.0°C 65.0°F18.3°C 96% 1.0 mph WSW1.6 kmh WSW 4.0 mph6.4 kmh 29.75 in1007.5 mb 0.01 in0.3 mm 0.00 in0.0 mm 0.02 in0.5 mm
12:35 AM 66.1°F18.9°C 64.9°F18.3°C 96% 1.0 mph WSW1.6 kmh WSW 4.0 mph6.4 kmh 29.74 in1007.1 mb 0.01 in0.3 mm 0.00 in0.0 mm 0.02 in0.5 mm
12:30 AM 66.2°F19.0°C 65.0°F18.3°C 96% Calm Calm 2.0 mph3.2 kmh 29.74 in1007.1 mb 0.01 in0.3 mm 0.00 in0.0 mm 0.02 in0.5 mm
12:25 AM 66.2°F19.0°C 65.0°F18.3°C 96% Calm Calm 5.0 mph8.0 kmh 29.74 in1007.1 mb 0.01 in0.3 mm 0.00 in0.0 mm 0.02 in0.5 mm
12:20 AM 66.3°F19.1°C 65.1°F18.4°C 96% Calm Calm 5.0 mph8.0 kmh 29.74 in1007.1 mb 0.01 in0.3 mm 0.00 in0.0 mm 0.02 in0.5 mm
12:15 AM 66.3°F19.1°C 65.1°F18.4°C 96% Calm Calm 4.0 mph6.4 kmh 29.73 in1006.8 mb 0.01 in0.3 mm 0.00 in0.0 mm 0.02 in0.5 mm
12:10 AM 66.4°F19.1°C 65.2°F18.4°C 96% 1.0 mph WSW1.6 kmh WSW 4.0 mph6.4 kmh 29.73 in1006.8 mb 0.01 in0.3 mm 0.00 in0.0 mm 0.02 in0.5 mm
12:05 AM 66.4°F19.1°C 65.2°F18.4°C 96% 1.0 mph W1.6 kmh W 4.0 mph6.4 kmh 29.73 in1006.8 mb 0.01 in0.3 mm 0.00 in0.0 mm 0.02 in0.5 mm
12:00 AM 66.4°F19.1°C 65.2°F18.4°C 96% 1.0 mph WSW1.6 kmh WSW 4.0 mph6.4 kmh 29.73 in1006.8 mb 0.02 in0.5 mm 0.00 in0.0 mm 0.02 in0.5 mm